Terminal Aerodrome Forecast
Issued by NWS

Home | Current Version | Previous Version | Text Only | Print | Product List | Glossary On
Versions: 1 2 3 4 5 6 7 8 9 10 11 12 13
000
FTUS46 KSTO 180500
TAFMHR
TAF
KMHR 180526Z 1806/1906 16007KT P6SM SCT200
     FM181100 16005KT P6SM VCSH SCT035 BKN050
     FM181600 20006KT P6SM SCT035 SCT200
     FM182100 24007KT P6SM SCT250=

USA.gov is the U.S. government's official web portal to all federal, state and local government web resources and services.